KMKL/MKL METAR and TAF weather

Enter ICAO airport designator
Station Type Date Time Source
KMKL METAR 2021/05/12 04:53 UTC NOAA

KMKL 120453Z AUTO 07007KT 10SM OVC050 13/11 A3016 RMK AO2 PRESFR SLP211 T01330106


Station Type Date Time Source
KMKL Decoded METAR 2021/05/12 04:53 UTC NOAA

JACKSON MCKELLAR-SIPES RGNL, TN, United States (KMKL) 35-36N 088-55W 128M
May 12, 2021 - 12:53 AM EDT / 2021.05.12 0453 UTC
Wind: from the ENE (070 degrees) at 8 MPH (7 KT):0
Visibility: 10 mile(s):0
Sky conditions: overcast
Temperature: 55.9 F (13.3 C)
Dew Point: 51.1 F (10.6 C)
Relative Humidity: 83%
Pressure (altimeter): 30.16 in. Hg (1021 hPa)
Pressure tendency: falling rapidly
ob: KMKL 120453Z AUTO 07007KT 10SM OVC050 13/11 A3016 RMK AO2 PRESFR SLP211 T01330106
cycle: 5

Station Type Date Time Source
KMKL TAF 2021/05/11 21:51 UTC NOAA

TAF
AMD KMKL 112048Z 1121/1218 08012KT P6SM VCSH FEW080 OVC100
FM120100 04008KT 6SM -SHRA BR SCT025 OVC035
FM120800 03010KT P6SM OVC030
FM121400 05013KT P6SM BKN060

Example: see airport list